Time;durP1;ratioP1;P1;durP2;ratioP2;P2;SDS_P1;SDS_P2;PMS_P1;PMS_P2;Temp;Humidity;BMP_temperature;BMP_pressure;BME280_temperature;BME280_humidity;BME280_pressure;Samples;Min_cycle;Max_cycle;Signal;HPM_P1;HPM_P2
2023/01/31 00:01:18;;;;;;;35.95;5.72;;;4.10;99.90;;;;;;5123433;28;20031;-86
2023/01/31 00:03:44;;;;;;;24.60;5.05;;;4.10;99.90;;;;;;5123139;28;20029;-85
2023/01/31 00:06:17;;;;;;;40.63;4.70;;;4.10;99.90;;;;;;5120972;28;20053;-82
2023/01/31 00:08:45;;;;;;;17.77;3.70;;;4.10;99.90;;;;;;5118104;28;20019;-85
2023/01/31 00:11:11;;;;;;;23.05;4.47;;;4.10;99.90;;;;;;5112982;28;20066;-86
2023/01/31 00:13:36;;;;;;;30.58;4.47;;;4.10;99.90;;;;;;5121812;27;20051;-87
2023/01/31 00:16:02;;;;;;;23.88;3.90;;;4.10;99.90;;;;;;5121478;27;20027;-87
2023/01/31 00:18:28;;;;;;;34.88;6.25;;;4.10;99.90;;;;;;5109825;27;20060;-87
2023/01/31 00:20:54;;;;;;;29.42;4.13;;;4.10;99.90;;;;;;5119575;27;20020;-84
2023/01/31 00:23:19;;;;;;;30.63;4.75;;;4.20;99.90;;;;;;5129080;27;20031;-86
2023/01/31 00:25:45;;;;;;;27.13;5.22;;;4.20;99.90;;;;;;5119840;27;20509;-86
2023/01/31 00:28:11;;;;;;;29.35;4.22;;;4.20;99.90;;;;;;5122961;27;20051;-85
2023/01/31 00:30:36;;;;;;;17.90;4.00;;;4.20;99.90;;;;;;5127168;27;20019;-83
2023/01/31 00:33:02;;;;;;;22.08;3.80;;;4.10;99.90;;;;;;5119510;27;20123;-88
2023/01/31 00:35:30;;;;;;;22.63;4.57;;;4.10;99.90;;;;;;5124759;27;20559;-82
2023/01/31 00:37:56;;;;;;;22.20;3.70;;;4.10;99.90;;;;;;5117159;27;20031;-86
2023/01/31 00:40:21;;;;;;;29.50;5.80;;;4.10;99.90;;;;;;5126795;27;20428;-85
2023/01/31 00:42:47;;;;;;;30.35;6.45;;;4.00;99.90;;;;;;5118916;27;20027;-87
2023/01/31 00:45:13;;;;;;;44.38;5.85;;;3.90;99.90;;;;;;5123975;27;20042;-87
2023/01/31 00:47:38;;;;;;;30.35;3.70;;;3.90;99.90;;;;;;5124461;27;20372;-84
2023/01/31 00:50:05;;;;;;;19.33;3.75;;;3.80;99.90;;;;;;5123247;27;20383;-84
2023/01/31 00:52:31;;;;;;;35.85;4.22;;;3.80;99.90;;;;;;5124535;27;20113;-87
2023/01/31 00:54:56;;;;;;;29.67;6.22;;;3.80;99.90;;;;;;5124303;27;20019;-83
2023/01/31 00:57:22;;;;;;;25.45;4.78;;;3.90;99.90;;;;;;5122468;27;20042;-85
2023/01/31 00:59:47;;;;;;;38.35;4.13;;;3.90;99.90;;;;;;5125898;27;20023;-86
2023/01/31 01:02:13;;;;;;;26.55;4.30;;;4.00;99.90;;;;;;5128535;27;20111;-84
2023/01/31 01:04:39;;;;;;;20.67;4.13;;;4.00;99.90;;;;;;5118319;27;20023;-83
2023/01/31 01:07:04;;;;;;;23.15;4.82;;;3.90;99.90;;;;;;5126077;27;20047;-86
2023/01/31 01:09:30;;;;;;;26.77;4.78;;;3.90;99.90;;;;;;5119032;27;20457;-84
2023/01/31 01:11:55;;;;;;;34.40;4.97;;;3.90;99.90;;;;;;5119677;27;20392;-84
2023/01/31 01:14:21;;;;;;;22.75;5.28;;;3.90;99.90;;;;;;5119580;27;20038;-86
2023/01/31 01:16:47;;;;;;;34.53;5.20;;;3.90;99.90;;;;;;5105502;27;20020;-86
2023/01/31 01:19:16;;;;;;;26.65;4.22;;;3.90;99.90;;;;;;5119426;27;20027;-85
2023/01/31 01:21:43;;;;;;;38.85;4.10;;;3.80;99.90;;;;;;5126113;27;20024;-86
2023/01/31 01:24:15;;;;;;;37.30;5.90;;;3.80;99.90;;;;;;5114730;27;20030;-85
2023/01/31 01:26:41;;;;;;;29.33;4.55;;;3.90;99.90;;;;;;5119819;27;20487;-85
2023/01/31 01:29:07;;;;;;;36.67;4.65;;;3.90;99.90;;;;;;5122110;27;20061;-86
2023/01/31 01:31:32;;;;;;;40.03;4.65;;;3.90;99.90;;;;;;5123806;27;20020;-86
2023/01/31 01:34:05;;;;;;;34.95;4.60;;;3.90;99.90;;;;;;5123889;27;20027;-84
2023/01/31 01:36:33;;;;;;;37.92;4.47;;;3.90;99.90;;;;;;5121483;27;20050;-86
2023/01/31 01:38:58;;;;;;;30.40;5.57;;;3.90;99.90;;;;;;5129368;27;20031;-85
2023/01/31 01:41:24;;;;;;;31.08;4.68;;;3.90;99.90;;;;;;5121443;27;20475;-84
2023/01/31 01:43:53;;;;;;;22.13;3.90;;;3.90;99.90;;;;;;5118997;27;20534;-86
2023/01/31 01:46:45;;;;;;;36.90;6.57;;;3.90;99.90;;;;;;5118686;27;20377;-84
2023/01/31 01:49:22;;;;;;;31.67;4.38;;;3.90;99.90;;;;;;5091170;27;20129;-85
2023/01/31 01:51:50;;;;;;;39.90;5.45;;;3.90;99.90;;;;;;5122255;27;20024;-86
2023/01/31 01:54:25;;;;;;;36.10;4.03;;;3.90;99.90;;;;;;5119874;27;20147;-85
2023/01/31 01:56:57;;;;;;;29.55;4.55;;;4.00;99.90;;;;;;5115305;27;20011;-85
2023/01/31 01:59:33;;;;;;;49.75;5.20;;;4.10;99.90;;;;;;5123789;27;20035;-84
2023/01/31 02:02:00;;;;;;;27.30;5.60;;;4.10;99.90;;;;;;5126064;27;20471;-85
2023/01/31 02:04:32;;;;;;;42.92;4.57;;;4.10;99.90;;;;;;5122812;27;20031;-85
2023/01/31 02:06:59;;;;;;;27.05;4.65;;;4.10;99.90;;;;;;5121825;27;20043;-85
2023/01/31 02:09:33;;;;;;;34.22;5.22;;;4.20;99.90;;;;;;5123365;27;20027;-82
2023/01/31 02:11:59;;;;;;;34.13;4.68;;;4.20;99.90;;;;;;5122573;27;20126;-85
2023/01/31 02:14:26;;;;;;;43.55;6.70;;;4.20;99.90;;;;;;5114807;27;20819;-88
2023/01/31 02:16:51;;;;;;;27.45;4.53;;;4.20;99.90;;;;;;5120913;27;20023;-85
2023/01/31 02:19:32;;;;;;;42.05;6.05;;;4.20;99.90;;;;;;5114081;27;20023;-82
2023/01/31 02:22:33;;;;;;;43.17;6.28;;;4.30;99.90;;;;;;5124493;27;20109;-86
2023/01/31 02:25:11;;;;;;;39.75;5.32;;;4.30;99.90;;;;;;5104275;27;20407;-85
2023/01/31 02:27:58;;;;;;;30.25;4.70;;;4.30;99.90;;;;;;5116666;27;20038;-87
2023/01/31 02:30:52;;;;;;;32.08;4.30;;;4.30;99.90;;;;;;5122668;27;20507;-85
2023/01/31 02:33:18;;;;;;;28.95;5.10;;;4.30;99.90;;;;;;5118875;27;20027;-86
2023/01/31 02:36:17;;;;;;;25.13;4.57;;;4.30;99.90;;;;;;5118426;27;20022;-83
2023/01/31 02:39:28;;;;;;;34.95;5.43;;;4.30;99.90;;;;;;5113904;27;20023;-87
2023/01/31 02:42:03;;;;;;;30.13;3.67;;;4.30;99.90;;;;;;5126928;27;20023;-84
2023/01/31 02:44:59;;;;;;;34.90;3.85;;;4.30;99.90;;;;;;5122165;27;20027;-86
2023/01/31 02:48:09;;;;;;;30.83;5.95;;;4.30;99.90;;;;;;5119997;27;20080;-85
2023/01/31 02:50:49;;;;;;;35.38;3.33;;;4.20;99.90;;;;;;5117736;27;20031;-84
2023/01/31 02:53:27;;;;;;;18.98;3.17;;;4.20;99.90;;;;;;5122151;27;20035;-86
2023/01/31 02:56:18;;;;;;;18.13;4.18;;;4.10;99.90;;;;;;5118997;27;20027;-86
2023/01/31 02:59:07;;;;;;;27.23;3.55;;;4.00;99.90;;;;;;5118699;27;20409;-84
2023/01/31 03:01:40;;;;;;;26.00;3.47;;;3.90;99.90;;;;;;5122331;27;20026;-84
2023/01/31 03:04:11;;;;;;;30.85;5.43;;;3.90;99.90;;;;;;5120694;27;20110;-87
2023/01/31 03:06:43;;;;;;;22.65;3.92;;;3.90;99.90;;;;;;5118097;27;20514;-85
2023/01/31 03:09:20;;;;;;;20.30;3.58;;;3.90;99.90;;;;;;5123218;28;20023;-85
2023/01/31 03:12:10;;;;;;;35.63;4.75;;;3.90;99.90;;;;;;5121818;28;20031;-85
2023/01/31 03:14:47;;;;;;;25.60;4.47;;;3.90;99.90;;;;;;5118161;28;20016;-86
2023/01/31 03:17:39;;;;;;;30.85;3.80;;;3.90;99.90;;;;;;5122080;28;20484;-85
2023/01/31 03:20:19;;;;;;;25.25;3.40;;;3.90;99.90;;;;;;5117719;28;20032;-86
2023/01/31 03:22:44;;;;;;;26.70;4.93;;;3.90;99.90;;;;;;5117195;28;20023;-87
2023/01/31 03:25:13;;;;;;;39.45;4.25;;;3.90;99.90;;;;;;5112200;28;20396;-86
2023/01/31 03:27:44;;;;;;;34.00;5.38;;;3.90;99.90;;;;;;5116759;28;20113;-86
2023/01/31 03:30:16;;;;;;;27.27;4.30;;;3.80;99.90;;;;;;5119989;28;20455;-86
2023/01/31 03:33:04;;;;;;;30.30;5.82;;;3.90;99.90;;;;;;5115338;28;20024;-85
2023/01/31 03:35:31;;;;;;;29.73;5.22;;;3.90;99.90;;;;;;5120174;28;20038;-83
2023/01/31 03:38:05;;;;;;;30.10;4.88;;;4.00;99.90;;;;;;5117465;28;20032;-85
2023/01/31 03:40:37;;;;;;;29.73;3.88;;;3.90;99.90;;;;;;5120280;28;20023;-85
2023/01/31 03:43:13;;;;;;;21.42;3.50;;;3.90;99.90;;;;;;5116358;28;20034;-84
2023/01/31 03:46:05;;;;;;;31.85;4.88;;;3.90;99.90;;;;;;5115628;28;20177;-84
2023/01/31 03:48:37;;;;;;;29.67;4.13;;;3.90;99.90;;;;;;5118916;27;20121;-85
2023/01/31 03:51:10;;;;;;;19.98;3.58;;;3.90;99.90;;;;;;5121191;27;20016;-85
2023/01/31 03:53:48;;;;;;;37.60;5.32;;;4.00;99.90;;;;;;5124700;27;20031;-84
2023/01/31 03:56:23;;;;;;;38.05;4.85;;;4.00;99.90;;;;;;5118941;27;20028;-84
2023/01/31 03:58:53;;;;;;;26.27;4.38;;;4.00;99.90;;;;;;5123958;27;20019;-86
2023/01/31 04:01:24;;;;;;;24.63;4.00;;;4.00;99.90;;;;;;5121863;27;20032;-85
2023/01/31 04:04:13;;;;;;;23.95;5.18;;;4.10;99.90;;;;;;5126285;27;20634;-85
2023/01/31 04:06:38;;;;;;;26.50;4.35;;;4.10;99.90;;;;;;5125886;27;20136;-85
2023/01/31 04:09:04;;;;;;;27.00;4.68;;;4.10;99.90;;;;;;5122931;27;20490;-84
2023/01/31 04:11:36;;;;;;;31.42;4.90;;;4.10;99.90;;;;;;5122123;27;20050;-83
2023/01/31 04:14:02;;;;;;;27.65;3.85;;;4.10;99.90;;;;;;5127417;27;20606;-86
2023/01/31 04:16:28;;;;;;;20.17;3.33;;;4.10;99.90;;;;;;5121846;27;20137;-86
2023/01/31 04:18:55;;;;;;;22.65;3.97;;;4.10;99.90;;;;;;5124925;27;20024;-86
2023/01/31 04:21:21;;;;;;;17.23;2.83;;;4.10;99.90;;;;;;5128860;27;20027;-86
2023/01/31 04:23:47;;;;;;;22.70;3.65;;;4.10;99.90;;;;;;5121020;27;20130;-84
2023/01/31 04:26:13;;;;;;;15.88;2.80;;;4.20;99.90;;;;;;5120887;27;20659;-88
2023/01/31 04:28:39;;;;;;;18.45;2.35;;;4.20;99.90;;;;;;5127432;27;20027;-84
2023/01/31 04:31:05;;;;;;;15.43;2.80;;;4.20;99.90;;;;;;5124943;27;20415;-86
2023/01/31 04:33:30;;;;;;;14.88;3.15;;;4.20;99.90;;;;;;5118822;27;20023;-85
2023/01/31 04:35:56;;;;;;;16.60;2.75;;;4.20;99.90;;;;;;5122345;27;20556;-87
2023/01/31 04:38:21;;;;;;;11.60;2.63;;;4.10;99.90;;;;;;5121655;27;20510;-86
2023/01/31 04:40:47;;;;;;;8.85;2.53;;;4.10;99.90;;;;;;5118708;27;20024;-86
2023/01/31 04:43:13;;;;;;;16.30;3.70;;;4.10;99.90;;;;;;5126750;27;20476;-86
2023/01/31 04:45:38;;;;;;;5.20;2.33;;;4.20;99.90;;;;;;5121161;27;20114;-83
2023/01/31 04:48:04;;;;;;;11.15;2.20;;;4.10;99.90;;;;;;5119745;27;20027;-86
2023/01/31 04:50:30;;;;;;;8.15;1.90;;;4.10;99.90;;;;;;5123600;27;20057;-85
2023/01/31 04:52:55;;;;;;;10.63;1.65;;;4.10;99.90;;;;;;5124713;27;20026;-86
2023/01/31 04:55:21;;;;;;;15.95;2.53;;;4.00;99.90;;;;;;5124234;27;20106;-85
2023/01/31 04:57:47;;;;;;;18.27;2.83;;;4.00;99.90;;;;;;5128569;27;20268;-86
2023/01/31 05:00:13;;;;;;;10.75;2.28;;;4.00;99.90;;;;;;5114208;27;20054;-85
2023/01/31 05:02:38;;;;;;;7.85;2.10;;;4.00;99.90;;;;;;5115818;27;20544;-85
2023/01/31 05:05:05;;;;;;;9.30;2.75;;;4.10;99.90;;;;;;5104918;27;20140;-85
2023/01/31 05:07:31;;;;;;;9.18;2.30;;;4.00;99.90;;;;;;5105207;27;20037;-86
2023/01/31 05:09:56;;;;;;;16.42;3.15;;;4.00;99.90;;;;;;5118863;27;20067;-86
2023/01/31 05:12:22;;;;;;;19.58;3.00;;;4.00;99.90;;;;;;5120572;27;20019;-84
2023/01/31 05:14:47;;;;;;;12.15;2.22;;;4.00;99.90;;;;;;5126082;27;20034;-86
2023/01/31 05:17:13;;;;;;;14.13;2.25;;;4.00;99.90;;;;;;5120514;27;20403;-87
2023/01/31 05:19:41;;;;;;;16.00;2.83;;;4.00;99.90;;;;;;5125565;27;20026;-85
2023/01/31 05:22:06;;;;;;;14.57;3.22;;;4.00;99.90;;;;;;5124741;27;20483;-84
2023/01/31 05:24:33;;;;;;;13.23;2.63;;;4.00;99.90;;;;;;5120418;27;20074;-83
2023/01/31 05:27:00;;;;;;;14.05;2.55;;;4.10;99.90;;;;;;5120870;27;20576;-85
2023/01/31 05:29:31;;;;;;;17.95;3.45;;;4.10;99.90;;;;;;5122750;27;20036;-86
2023/01/31 05:31:59;;;;;;;12.70;2.42;;;4.10;99.90;;;;;;5121668;27;20038;-86
2023/01/31 05:34:29;;;;;;;16.73;2.65;;;4.10;99.90;;;;;;5121232;27;20027;-84
2023/01/31 05:36:55;;;;;;;26.02;3.42;;;4.10;99.90;;;;;;5121056;27;20115;-83
2023/01/31 05:39:20;;;;;;;19.88;3.50;;;4.10;99.90;;;;;;5124419;27;20106;-88
2023/01/31 05:41:46;;;;;;;16.42;2.15;;;4.10;99.90;;;;;;5124671;27;20048;-86
2023/01/31 05:44:13;;;;;;;17.75;3.65;;;4.10;99.90;;;;;;5119914;27;20031;-84
2023/01/31 05:46:39;;;;;;;22.00;3.28;;;4.20;99.90;;;;;;5120346;27;20494;-85
2023/01/31 05:49:05;;;;;;;12.75;2.47;;;4.00;99.90;;;;;;5115180;27;20031;-85
2023/01/31 05:51:31;;;;;;;28.77;3.75;;;4.00;99.90;;;;;;5123741;27;20040;-84
2023/01/31 05:53:56;;;;;;;15.90;2.75;;;3.90;99.90;;;;;;5124753;27;20030;-85
2023/01/31 05:56:25;;;;;;;29.92;3.53;;;3.90;99.90;;;;;;5118673;27;20025;-85
2023/01/31 05:58:51;;;;;;;24.42;3.40;;;3.90;99.90;;;;;;5127536;27;20031;-86
2023/01/31 06:01:22;;;;;;;25.98;3.90;;;3.90;99.90;;;;;;5120358;27;20563;-85
2023/01/31 06:03:48;;;;;;;24.67;3.22;;;3.80;99.90;;;;;;5119317;27;20384;-85
2023/01/31 06:06:14;;;;;;;22.05;3.13;;;3.80;99.90;;;;;;5123040;27;20051;-86
2023/01/31 06:08:43;;;;;;;11.82;3.08;;;3.80;99.90;;;;;;5118109;27;20033;-83
2023/01/31 06:11:10;;;;;;;15.13;3.40;;;3.80;99.90;;;;;;5129331;27;20071;-86
2023/01/31 06:13:37;;;;;;;23.92;3.78;;;3.80;99.90;;;;;;5124279;27;20031;-85
2023/01/31 06:16:04;;;;;;;29.25;3.88;;;3.80;99.90;;;;;;5110039;28;20039;-87
2023/01/31 06:18:30;;;;;;;24.35;5.30;;;3.80;99.90;;;;;;5121022;27;20132;-84
2023/01/31 06:20:55;;;;;;;11.02;2.42;;;3.80;99.90;;;;;;5129835;27;20399;-85
2023/01/31 06:23:21;;;;;;;20.05;4.15;;;3.80;99.90;;;;;;5103302;28;20464;-85
2023/01/31 06:25:51;;;;;;;24.63;4.03;;;3.80;99.90;;;;;;5123713;27;20031;-86
2023/01/31 06:28:17;;;;;;;17.15;5.07;;;3.80;99.90;;;;;;5127927;27;20118;-86
2023/01/31 06:30:43;;;;;;;26.83;4.32;;;3.90;99.90;;;;;;5129599;27;20077;-86
2023/01/31 06:33:09;;;;;;;24.67;3.53;;;3.90;99.90;;;;;;5129672;27;20476;-85
2023/01/31 06:35:36;;;;;;;19.60;3.20;;;3.90;99.90;;;;;;5124636;27;20030;-86
2023/01/31 06:38:01;;;;;;;17.35;2.38;;;3.90;99.90;;;;;;5122956;27;20471;-85
2023/01/31 06:40:27;;;;;;;25.77;3.40;;;3.90;99.90;;;;;;5122004;27;20034;-84
2023/01/31 06:42:52;;;;;;;16.83;3.00;;;3.90;99.90;;;;;;5124479;27;20030;-84
2023/01/31 06:45:18;;;;;;;19.52;3.03;;;3.90;99.90;;;;;;5123389;27;20106;-85
2023/01/31 06:47:44;;;;;;;12.35;3.28;;;3.90;99.90;;;;;;5125178;27;20429;-85
2023/01/31 06:50:11;;;;;;;26.13;3.67;;;3.80;99.90;;;;;;5114200;27;20418;-84
2023/01/31 06:52:38;;;;;;;28.27;4.70;;;3.80;99.90;;;;;;5108619;28;20066;-86
2023/01/31 06:55:05;;;;;;;19.67;3.80;;;3.80;99.90;;;;;;5121813;27;20031;-85
2023/01/31 06:57:30;;;;;;;21.73;2.92;;;3.90;99.90;;;;;;5123910;27;20027;-87
2023/01/31 06:59:56;;;;;;;19.52;3.45;;;3.90;99.90;;;;;;5116858;27;20380;-85
2023/01/31 07:02:21;;;;;;;17.15;3.85;;;3.90;99.90;;;;;;5117783;27;20030;-83
2023/01/31 07:04:47;;;;;;;22.77;3.40;;;4.00;99.90;;;;;;5117174;27;20115;-85
2023/01/31 07:07:12;;;;;;;16.42;3.08;;;4.00;99.90;;;;;;5120878;27;20058;-85
2023/01/31 07:09:38;;;;;;;26.10;4.78;;;4.00;99.90;;;;;;5123695;27;20298;-84
2023/01/31 07:12:03;;;;;;;27.13;3.72;;;4.00;99.90;;;;;;5119162;28;20019;-83
2023/01/31 07:14:29;;;;;;;18.63;4.30;;;4.00;99.90;;;;;;5112815;28;20023;-85
2023/01/31 07:16:55;;;;;;;24.05;3.50;;;4.00;99.90;;;;;;5120156;28;20471;-85
2023/01/31 07:19:20;;;;;;;23.13;3.55;;;4.10;99.90;;;;;;5129063;28;20027;-86
2023/01/31 07:21:47;;;;;;;24.00;4.90;;;4.10;99.90;;;;;;5128321;27;20093;-86
2023/01/31 07:24:14;;;;;;;25.48;4.15;;;4.10;99.90;;;;;;5133193;27;20031;-85
2023/01/31 07:26:39;;;;;;;18.50;3.97;;;4.10;99.90;;;;;;5130072;27;20047;-84
2023/01/31 07:29:05;;;;;;;28.00;4.25;;;4.10;99.90;;;;;;5120785;27;20404;-86
2023/01/31 07:31:30;;;;;;;26.85;4.22;;;4.10;99.90;;;;;;5130164;27;20033;-86
2023/01/31 07:33:56;;;;;;;22.58;3.83;;;4.10;99.90;;;;;;5118224;27;20034;-84
2023/01/31 07:36:25;;;;;;;39.30;5.03;;;4.20;99.90;;;;;;5129584;27;20432;-87
2023/01/31 07:38:54;;;;;;;29.40;5.13;;;4.20;99.90;;;;;;5127105;27;20031;-86
2023/01/31 07:41:20;;;;;;;23.08;4.10;;;4.20;99.90;;;;;;5128358;27;20045;-87
2023/01/31 07:43:45;;;;;;;26.17;4.43;;;4.30;99.90;;;;;;5124173;27;20142;-85
2023/01/31 07:46:11;;;;;;;34.42;4.50;;;4.30;99.90;;;;;;5120986;27;20089;-87
2023/01/31 07:48:37;;;;;;;47.42;9.70;;;4.30;99.90;;;;;;5128373;27;20071;-86
2023/01/31 07:51:03;;;;;;;24.60;4.95;;;4.30;99.90;;;;;;5121386;27;20533;-87
2023/01/31 07:53:31;;;;;;;32.13;6.13;;;4.30;99.90;;;;;;5130551;27;20023;-86
2023/01/31 07:56:10;;;;;;;31.08;8.00;;;4.30;99.90;;;;;;5132586;27;20034;-86
2023/01/31 07:58:37;;;;;;;33.65;7.03;;;4.30;99.90;;;;;;5118750;27;20027;-86
2023/01/31 08:03:47;;;;;;;35.25;5.80;;;4.40;99.90;;;;;;5121814;27;20065;-88
2023/01/31 08:06:13;;;;;;;28.92;5.88;;;4.30;99.90;;;;;;5119863;27;20036;-87
2023/01/31 08:08:40;;;;;;;34.25;5.88;;;4.40;99.90;;;;;;5126281;27;20427;-86
2023/01/31 08:11:06;;;;;;;35.28;5.88;;;4.30;99.90;;;;;;5131484;27;20035;-88
2023/01/31 08:13:36;;;;;;;35.95;6.60;;;4.40;99.90;;;;;;5121543;27;20027;-87
2023/01/31 08:16:05;;;;;;;32.08;6.28;;;4.40;99.90;;;;;;5125469;27;20023;-87
2023/01/31 08:18:30;;;;;;;49.45;6.00;;;4.50;99.90;;;;;;5120239;27;20054;-85
2023/01/31 08:20:57;;;;;;;27.33;4.63;;;4.50;99.90;;;;;;5128262;27;20113;-86
2023/01/31 08:23:23;;;;;;;50.38;5.53;;;4.50;99.90;;;;;;5128585;27;20492;-86
2023/01/31 08:25:49;;;;;;;34.20;5.05;;;4.50;99.90;;;;;;5126554;27;20072;-89
2023/01/31 08:28:15;;;;;;;31.15;5.15;;;4.50;99.90;;;;;;5125063;27;20019;-87
2023/01/31 08:30:42;;;;;;;33.95;5.80;;;4.50;99.90;;;;;;5123557;27;20038;-85
2023/01/31 08:33:09;;;;;;;32.70;5.80;;;4.50;99.90;;;;;;5123583;27;20065;-87
2023/01/31 08:35:35;;;;;;;54.85;5.65;;;4.50;99.90;;;;;;5123043;27;20453;-86
2023/01/31 08:38:01;;;;;;;30.98;6.07;;;4.50;99.90;;;;;;5125592;27;20030;-87
2023/01/31 08:40:26;;;;;;;33.50;6.68;;;4.50;99.90;;;;;;5116037;27;20028;-87
2023/01/31 08:42:55;;;;;;;29.08;5.03;;;4.50;99.90;;;;;;5127852;27;20031;-86
2023/01/31 08:45:21;;;;;;;35.67;5.63;;;4.50;99.90;;;;;;5115392;27;20072;-87
2023/01/31 08:47:47;;;;;;;31.05;5.28;;;4.60;99.90;;;;;;5126222;27;20035;-87
2023/01/31 08:50:13;;;;;;;45.67;6.70;;;4.60;99.90;;;;;;5121539;27;20046;-87
2023/01/31 08:52:38;;;;;;;31.33;6.18;;;4.70;99.90;;;;;;5121172;27;20054;-84
2023/01/31 08:55:05;;;;;;;39.42;6.38;;;4.70;99.90;;;;;;5126173;27;20118;-87
2023/01/31 08:57:31;;;;;;;23.73;5.45;;;4.70;99.90;;;;;;5125121;27;20396;-85
2023/01/31 08:59:56;;;;;;;32.30;5.55;;;4.80;99.90;;;;;;5126588;27;20029;-86
2023/01/31 09:02:22;;;;;;;39.75;5.97;;;4.80;99.90;;;;;;5124327;27;20032;-87
2023/01/31 09:04:48;;;;;;;24.55;4.68;;;4.90;99.90;;;;;;5127994;27;20027;-87
2023/01/31 09:07:14;;;;;;;35.72;6.38;;;4.80;99.90;;;;;;5121896;27;20441;-86
2023/01/31 09:09:39;;;;;;;38.03;6.15;;;4.80;99.90;;;;;;5110360;27;20034;-87
2023/01/31 09:12:05;;;;;;;43.28;6.40;;;4.80;99.90;;;;;;5118091;27;20400;-87
2023/01/31 09:14:31;;;;;;;26.20;4.85;;;4.90;99.90;;;;;;5119069;27;20034;-87
2023/01/31 09:16:56;;;;;;;26.80;4.30;;;4.90;99.90;;;;;;5120704;27;20047;-86
2023/01/31 09:19:22;;;;;;;26.70;5.63;;;4.80;99.90;;;;;;5105818;27;20372;-86
2023/01/31 09:21:48;;;;;;;29.83;5.82;;;4.80;99.90;;;;;;5125517;27;20025;-86
2023/01/31 09:24:14;;;;;;;26.95;5.63;;;4.80;99.90;;;;;;5119396;27;20040;-86
2023/01/31 09:26:39;;;;;;;34.35;5.50;;;4.70;99.90;;;;;;5099570;27;20040;-86
2023/01/31 09:29:05;;;;;;;41.70;6.05;;;4.70;99.90;;;;;;5120002;27;20027;-87
2023/01/31 09:31:31;;;;;;;37.22;6.03;;;4.70;99.90;;;;;;5126025;27;20038;-87
2023/01/31 09:33:57;;;;;;;37.63;5.38;;;4.70;99.90;;;;;;5115984;27;20415;-88
2023/01/31 09:36:24;;;;;;;24.60;4.43;;;4.80;99.90;;;;;;5128433;27;20023;-85
2023/01/31 09:38:54;;;;;;;37.83;5.68;;;4.80;99.90;;;;;;5111293;27;20594;-86
2023/01/31 09:41:53;;;;;;;29.92;5.68;;;4.80;99.90;;;;;;5117312;27;20050;-87
2023/01/31 09:44:26;;;;;;;26.60;5.30;;;4.80;99.90;;;;;;5110540;27;20062;-86
2023/01/31 09:46:58;;;;;;;34.78;5.35;;;4.80;99.90;;;;;;5100877;28;20057;-86
2023/01/31 09:49:30;;;;;;;29.38;5.53;;;4.90;99.90;;;;;;5119583;27;20024;-88
2023/01/31 09:52:00;;;;;;;39.60;6.07;;;4.90;99.90;;;;;;5100901;28;20456;-87
2023/01/31 09:54:35;;;;;;;39.45;7.00;;;4.80;99.90;;;;;;5117963;27;20035;-87
2023/01/31 09:57:25;;;;;;;33.35;5.70;;;4.80;99.90;;;;;;5120473;27;20027;-87
2023/01/31 10:00:19;;;;;;;27.88;5.65;;;4.80;99.90;;;;;;5120714;27;20081;-89
2023/01/31 10:03:16;;;;;;;39.85;6.75;;;4.90;99.90;;;;;;5121200;27;20441;-87
2023/01/31 10:05:51;;;;;;;33.42;7.05;;;4.90;99.90;;;;;;5110477;27;20521;-86
2023/01/31 10:08:28;;;;;;;33.00;6.13;;;4.90;99.90;;;;;;5105537;28;20031;-88
2023/01/31 10:10:59;;;;;;;32.38;6.72;;;4.90;99.90;;;;;;5099301;28;20077;-86
2023/01/31 10:13:45;;;;;;;28.27;5.85;;;4.90;99.90;;;;;;5103931;28;20023;-85
2023/01/31 10:16:44;;;;;;;32.20;6.10;;;4.90;99.90;;;;;;5100205;28;20097;-85
2023/01/31 10:19:24;;;;;;;34.45;5.60;;;5.00;99.90;;;;;;5099658;28;20369;-84
2023/01/31 10:21:56;;;;;;;31.63;6.05;;;5.00;99.90;;;;;;5098189;28;20089;-88
2023/01/31 10:24:46;;;;;;;29.08;6.45;;;5.00;99.90;;;;;;5093707;28;20026;-86
2023/01/31 10:27:34;;;;;;;26.95;5.35;;;5.00;99.90;;;;;;5097286;28;20035;-86
2023/01/31 10:30:03;;;;;;;23.98;7.32;;;5.00;99.90;;;;;;5100124;28;20523;-89
2023/01/31 10:32:41;;;;;;;36.55;6.25;;;5.00;99.90;;;;;;5103860;28;20388;-84
2023/01/31 10:35:23;;;;;;;35.00;6.47;;;5.10;99.90;;;;;;5109213;28;20028;-85
2023/01/31 10:37:54;;;;;;;33.38;5.70;;;5.10;99.90;;;;;;5099704;28;20046;-87
2023/01/31 10:40:27;;;;;;;33.40;6.93;;;5.20;99.90;;;;;;5105602;28;20038;-85
2023/01/31 10:42:59;;;;;;;31.17;6.47;;;5.10;99.90;;;;;;5079560;28;20028;-86
2023/01/31 10:45:29;;;;;;;49.60;10.60;;;5.20;99.90;;;;;;5106403;28;20464;-86
2023/01/31 10:48:17;;;;;;;30.23;7.57;;;5.20;99.90;;;;;;5103723;28;20050;-86
2023/01/31 10:51:15;;;;;;;51.40;10.52;;;5.30;99.90;;;;;;5098974;28;20387;-87
2023/01/31 10:54:06;;;;;;;23.58;6.22;;;5.30;99.90;;;;;;5093389;28;20085;-85
2023/01/31 10:56:38;;;;;;;47.33;7.85;;;5.30;99.90;;;;;;5106051;28;20032;-85
2023/01/31 10:59:10;;;;;;;28.85;6.75;;;5.30;99.90;;;;;;5096371;28;20034;-85
2023/01/31 11:01:36;;;;;;;38.33;8.82;;;5.30;99.90;;;;;;5106565;28;20027;-86
2023/01/31 11:04:18;;;;;;;36.03;6.60;;;5.30;99.90;;;;;;5108637;28;20046;-86
2023/01/31 11:06:43;;;;;;;40.90;6.40;;;5.40;99.90;;;;;;5101650;28;20555;-88
2023/01/31 11:09:10;;;;;;;39.45;7.13;;;5.40;99.90;;;;;;5107973;28;20101;-85
2023/01/31 11:11:55;;;;;;;35.78;9.45;;;5.40;99.90;;;;;;5107072;28;20023;-86
2023/01/31 11:14:21;;;;;;;35.30;8.25;;;5.30;99.90;;;;;;5108345;28;20479;-86
2023/01/31 11:17:00;;;;;;;26.77;6.60;;;5.30;99.90;;;;;;5108353;28;20023;-86
2023/01/31 11:19:53;;;;;;;27.00;6.88;;;5.30;99.90;;;;;;5101176;28;20376;-86
2023/01/31 11:22:28;;;;;;;26.92;6.35;;;5.20;99.90;;;;;;5104381;28;20028;-87
2023/01/31 11:24:55;;;;;;;27.52;7.22;;;5.20;99.90;;;;;;5107942;28;20027;-85
2023/01/31 11:27:37;;;;;;;17.38;5.30;;;5.20;99.90;;;;;;5103516;28;20070;-85
2023/01/31 11:30:04;;;;;;;26.33;5.78;;;5.20;99.90;;;;;;5101220;28;20109;-87
2023/01/31 11:32:35;;;;;;;17.27;4.47;;;5.20;99.90;;;;;;5107928;28;20078;-86
2023/01/31 11:35:03;;;;;;;17.20;4.90;;;5.20;99.90;;;;;;5101908;28;20028;-88
2023/01/31 11:37:30;;;;;;;26.48;7.25;;;5.10;99.90;;;;;;5096004;28;20035;-88
2023/01/31 11:40:25;;;;;;;17.60;4.57;;;5.20;99.90;;;;;;5092182;28;20042;-85
2023/01/31 11:43:00;;;;;;;15.55;4.13;;;5.20;99.90;;;;;;5105451;28;20473;-85
2023/01/31 11:45:35;;;;;;;23.13;6.32;;;5.20;99.90;;;;;;5097586;28;20032;-87
2023/01/31 11:48:07;;;;;;;;;;;5.20;99.90;;;;;;5076848;28;20036;-86
2023/01/31 11:50:53;;;;;;;15.68;3.45;;;5.20;99.90;;;;;;5106782;28;19915;-85
2023/01/31 11:53:22;;;;;;;13.23;3.45;;;5.30;99.90;;;;;;5098979;28;20091;-86
2023/01/31 11:55:50;;;;;;;11.45;3.10;;;5.30;99.90;;;;;;5107656;28;20120;-85
2023/01/31 11:58:21;;;;;;;8.70;2.78;;;5.30;99.90;;;;;;5103440;28;20016;-87
2023/01/31 12:01:15;;;;;;;11.10;3.78;;;5.30;99.90;;;;;;5099096;28;20023;-84
2023/01/31 12:03:54;;;;;;;12.95;4.38;;;5.30;99.90;;;;;;5091866;28;20027;-86
2023/01/31 12:06:30;;;;;;;11.75;3.92;;;5.30;99.90;;;;;;5097869;28;20488;-86
2023/01/31 12:08:59;;;;;;;9.25;3.13;;;5.30;99.90;;;;;;5107610;28;20133;-86
2023/01/31 12:11:31;;;;;;;6.85;3.05;;;5.30;99.90;;;;;;5105405;28;20074;-86
2023/01/31 12:14:05;;;;;;;7.45;2.85;;;5.30;99.90;;;;;;5099798;28;20032;-85
2023/01/31 12:16:34;;;;;;;9.40;2.83;;;5.20;99.90;;;;;;5106830;28;20012;-84
2023/01/31 12:19:02;;;;;;;11.63;4.07;;;5.20;99.90;;;;;;5110243;28;20028;-87
2023/01/31 12:21:55;;;;;;;9.00;3.67;;;5.10;99.90;;;;;;5104439;28;20024;-85
2023/01/31 12:24:32;;;;;;;10.88;3.42;;;5.10;99.90;;;;;;5091918;28;20031;-87
2023/01/31 12:27:46;;;;;;;7.90;3.15;;;5.00;99.90;;;;;;5100083;28;20054;-87
2023/01/31 12:30:24;;;;;;;9.60;4.05;;;4.90;99.90;;;;;;5085778;28;20047;-88
2023/01/31 12:32:56;;;;;;;11.27;4.40;;;4.80;99.90;;;;;;5102269;28;20434;-86
2023/01/31 12:35:33;;;;;;;7.43;3.67;;;4.80;99.90;;;;;;5097737;28;20024;-86
2023/01/31 12:38:09;;;;;;;10.68;4.05;;;4.80;99.90;;;;;;5106626;28;20542;-88
2023/01/31 12:41:18;;;;;;;14.15;4.15;;;4.80;99.90;;;;;;5106583;28;20027;-87
2023/01/31 12:44:01;;;;;;;10.52;4.07;;;4.80;99.90;;;;;;5105586;28;20039;-87
2023/01/31 12:46:34;;;;;;;9.50;3.67;;;4.80;99.90;;;;;;5106190;28;20169;-88
2023/01/31 12:49:15;;;;;;;5.75;3.58;;;4.70;99.90;;;;;;5104955;28;20028;-87
2023/01/31 12:51:50;;;;;;;7.22;3.55;;;4.70;99.90;;;;;;5109033;28;20024;-88
2023/01/31 12:54:28;;;;;;;8.65;3.83;;;4.70;99.90;;;;;;5089261;28;20118;-85
2023/01/31 12:57:48;;;;;;;9.95;3.70;;;4.70;99.90;;;;;;5093539;27;20034;-85
2023/01/31 13:00:30;;;;;;;7.72;3.47;;;4.80;99.90;;;;;;5020277;28;20038;-86
2023/01/31 13:03:35;;;;;;;9.57;3.13;;;4.80;99.90;;;;;;5099772;28;20044;-88
2023/01/31 13:06:14;;;;;;;4.35;2.50;;;4.70;99.90;;;;;;5098927;27;20036;-88
2023/01/31 13:09:07;;;;;;;8.27;3.40;;;4.80;99.90;;;;;;5080872;28;20092;-84
2023/01/31 13:11:55;;;;;;;8.57;2.97;;;4.80;99.90;;;;;;5104274;28;20028;-86
2023/01/31 13:14:24;;;;;;;4.47;2.63;;;4.80;99.90;;;;;;5102926;28;20042;-85